createdAt,value
2023-04-19T00:01:33.885Z,7.80
2023-04-19T00:04:01.192Z,7.67
2023-04-19T00:06:30.373Z,7.23
2023-04-19T00:08:57.642Z,6.77
2023-04-19T00:11:25.626Z,6.33
2023-04-19T00:13:52.762Z,7.47
2023-04-19T00:16:19.889Z,7.43
2023-04-19T00:18:47.036Z,7.50
2023-04-19T00:21:14.220Z,6.63
2023-04-19T00:23:41.396Z,6.67
2023-04-19T00:26:08.589Z,7.43
2023-04-19T00:28:35.707Z,7.17
2023-04-19T00:31:02.904Z,7.37
2023-04-19T00:33:30.117Z,7.20
2023-04-19T00:35:57.283Z,7.93
2023-04-19T00:38:24.643Z,7.40
2023-04-19T00:40:51.738Z,7.27
2023-04-19T00:43:22.030Z,7.57
2023-04-19T00:45:50.168Z,8.17
2023-04-19T00:48:17.532Z,8.00
2023-04-19T00:50:45.519Z,7.40
2023-04-19T00:53:12.966Z,8.13
2023-04-19T00:55:40.383Z,7.60
2023-04-19T00:58:10.281Z,7.33
2023-04-19T01:00:37.834Z,7.50
2023-04-19T01:03:05.205Z,8.07
2023-04-19T01:05:32.439Z,8.20
2023-04-19T01:07:59.591Z,8.47
2023-04-19T01:10:26.686Z,8.60
2023-04-19T01:12:53.819Z,8.50
2023-04-19T01:15:21.148Z,8.67
2023-04-19T01:17:48.326Z,8.03
2023-04-19T01:20:15.477Z,8.77
2023-04-19T01:22:42.617Z,8.97
2023-04-19T01:25:10.461Z,9.90
2023-04-19T01:27:37.615Z,9.03
2023-04-19T01:30:04.881Z,9.47
2023-04-19T01:32:32.180Z,9.73
2023-04-19T01:34:59.377Z,9.10
2023-04-19T01:37:26.510Z,9.10
2023-04-19T01:39:53.636Z,8.87
2023-04-19T01:42:20.781Z,9.50
2023-04-19T01:44:47.912Z,9.10
2023-04-19T01:47:15.004Z,8.83
2023-04-19T01:49:42.144Z,9.07
2023-04-19T01:52:09.296Z,9.63
2023-04-19T01:54:36.378Z,9.40
2023-04-19T01:57:03.585Z,9.43
2023-04-19T01:59:30.673Z,9.60
2023-04-19T02:01:57.859Z,9.73
2023-04-19T02:04:25.104Z,10.00
2023-04-19T02:06:52.227Z,9.23
2023-04-19T02:09:19.360Z,9.37
2023-04-19T02:11:46.534Z,9.77
2023-04-19T02:14:13.866Z,10.07
2023-04-19T02:16:41.228Z,9.77
2023-04-19T02:19:08.462Z,9.90
2023-04-19T02:21:35.590Z,9.93
2023-04-19T02:24:02.804Z,10.17
2023-04-19T02:26:29.937Z,11.13
2023-04-19T02:28:57.124Z,10.60
2023-04-19T02:31:24.306Z,9.50
2023-04-19T02:33:51.512Z,9.53
2023-04-19T02:36:18.597Z,10.27
2023-04-19T02:38:45.685Z,10.03
2023-04-19T02:41:12.814Z,9.57
2023-04-19T02:43:40.234Z,9.90
2023-04-19T02:46:07.444Z,10.00
2023-04-19T02:48:34.598Z,9.83
2023-04-19T02:51:01.922Z,10.17
2023-04-19T02:53:29.087Z,10.27
2023-04-19T02:55:56.242Z,9.30
2023-04-19T02:58:23.324Z,10.47
2023-04-19T03:00:50.502Z,10.13
2023-04-19T03:03:17.906Z,10.00
2023-04-19T03:05:45.302Z,10.27
2023-04-19T03:08:12.478Z,10.17
2023-04-19T03:10:39.615Z,10.53
2023-04-19T03:13:06.781Z,10.80
2023-04-19T03:15:33.895Z,10.40
2023-04-19T03:18:01.170Z,10.60
2023-04-19T03:20:28.346Z,10.27
2023-04-19T03:22:55.462Z,10.10
2023-04-19T03:25:22.649Z,10.60
2023-04-19T03:27:51.081Z,10.90
2023-04-19T03:30:18.337Z,9.90
2023-04-19T03:32:45.911Z,11.07
2023-04-19T03:35:13.049Z,10.73
2023-04-19T03:37:40.304Z,11.40
2023-04-19T03:40:07.727Z,11.07
2023-04-19T03:42:34.908Z,10.80
2023-04-19T03:45:01.976Z,11.53
2023-04-19T03:47:29.072Z,11.63
2023-04-19T03:49:56.258Z,11.43
2023-04-19T03:52:23.399Z,10.83
2023-04-19T03:54:50.488Z,10.20
2023-04-19T03:57:17.800Z,10.80
2023-04-19T03:59:44.903Z,10.80
2023-04-19T04:02:12.071Z,10.13
2023-04-19T04:04:39.738Z,10.80
2023-04-19T04:07:06.994Z,10.63
2023-04-19T04:09:34.092Z,10.80
2023-04-19T04:12:01.541Z,10.63
2023-04-19T04:14:28.633Z,10.17
2023-04-19T04:16:55.933Z,10.37
2023-04-19T04:19:23.048Z,10.80
2023-04-19T04:21:50.365Z,11.50
2023-04-19T04:24:17.921Z,10.47
2023-04-19T04:26:45.140Z,10.23
2023-04-19T04:29:12.374Z,10.50
2023-04-19T04:31:39.627Z,12.20
2023-04-19T04:34:09.105Z,11.30
2023-04-19T04:36:39.365Z,10.93
2023-04-19T04:39:06.516Z,11.17
2023-04-19T04:41:35.906Z,10.80
2023-04-19T04:44:12.522Z,11.10
2023-04-19T04:46:40.313Z,10.77
2023-04-19T04:49:07.453Z,10.60
2023-04-19T04:51:35.246Z,10.97
2023-04-19T04:54:02.437Z,10.97
2023-04-19T04:56:30.877Z,10.30
2023-04-19T04:58:58.120Z,10.37
2023-04-19T05:01:25.361Z,9.87
2023-04-19T05:03:52.890Z,10.33
2023-04-19T05:06:19.996Z,10.73
2023-04-19T05:08:47.190Z,10.27
2023-04-19T05:11:14.730Z,10.43
2023-04-19T05:13:41.824Z,10.33
2023-04-19T05:16:09.048Z,9.83
2023-04-19T05:18:36.217Z,9.60
2023-04-19T05:21:03.373Z,10.10
2023-04-19T05:23:30.501Z,9.13
2023-04-19T05:25:57.575Z,9.60
2023-04-19T05:28:24.716Z,8.93
2023-04-19T05:30:52.762Z,9.60
2023-04-19T05:33:19.861Z,10.00
2023-04-19T05:35:46.970Z,9.73
2023-04-19T05:38:14.085Z,10.50
2023-04-19T05:40:41.294Z,9.37
2023-04-19T05:43:08.416Z,10.23
2023-04-19T05:45:35.623Z,9.70
2023-04-19T05:48:02.815Z,10.37
2023-04-19T05:50:29.974Z,10.20
2023-04-19T05:52:57.075Z,10.47
2023-04-19T05:55:24.180Z,10.87
2023-04-19T05:57:51.303Z,10.97
2023-04-19T06:00:18.998Z,12.13
2023-04-19T06:02:46.696Z,10.90
2023-04-19T06:05:14.072Z,10.37
2023-04-19T06:07:47.341Z,10.97
2023-04-19T06:10:22.098Z,10.90
2023-04-19T06:12:49.219Z,11.07
2023-04-19T06:15:16.347Z,11.07
2023-04-19T06:17:43.483Z,11.50
2023-04-19T06:20:10.846Z,11.63
2023-04-19T06:22:42.921Z,12.00
2023-04-19T06:25:10.137Z,11.93
2023-04-19T06:27:37.299Z,11.60
2023-04-19T06:30:04.722Z,11.73
2023-04-19T06:32:31.924Z,11.00
2023-04-19T06:34:59.045Z,11.63
2023-04-19T06:37:26.175Z,11.40
2023-04-19T06:39:53.293Z,11.40
2023-04-19T06:42:20.916Z,11.43
2023-04-19T06:44:48.012Z,10.77
2023-04-19T06:47:15.238Z,10.63
2023-04-19T06:49:42.383Z,10.20
2023-04-19T06:52:09.540Z,10.23
2023-04-19T06:54:36.693Z,10.03
2023-04-19T06:57:03.914Z,10.07
2023-04-19T06:59:32.316Z,10.00
2023-04-19T07:01:59.562Z,9.47
2023-04-19T07:04:27.799Z,9.40
2023-04-19T07:06:55.083Z,8.70
2023-04-19T07:09:22.190Z,8.30
2023-04-19T07:11:51.303Z,7.90
2023-04-19T07:14:19.342Z,7.60
2023-04-19T07:16:46.961Z,7.93
2023-04-19T07:19:14.314Z,7.60
2023-04-19T07:21:41.440Z,7.37
2023-04-19T07:24:08.663Z,6.93
2023-04-19T07:26:35.855Z,7.10
2023-04-19T07:29:03.619Z,6.97
2023-04-19T07:31:30.762Z,7.50
2023-04-19T07:33:57.945Z,7.60
2023-04-19T07:36:25.265Z,7.17
2023-04-19T07:38:52.445Z,6.57
2023-04-19T07:41:19.557Z,7.07
2023-04-19T07:43:46.702Z,7.27
2023-04-19T07:46:16.069Z,6.47
2023-04-19T07:48:43.323Z,6.50
2023-04-19T07:51:11.416Z,5.87
2023-04-19T07:53:39.231Z,6.43
2023-04-19T07:56:11.408Z,6.33
2023-04-19T07:58:41.524Z,5.97
2023-04-19T08:01:08.959Z,6.20
2023-04-19T08:03:36.966Z,6.10
2023-04-19T08:06:05.608Z,6.40
2023-04-19T08:08:34.050Z,5.43
2023-04-19T08:11:02.460Z,5.63
2023-04-19T08:13:30.453Z,5.70
2023-04-19T08:18:27.882Z,5.57
2023-04-19T08:20:56.572Z,5.87
2023-04-19T08:23:27.799Z,5.70
2023-04-19T08:26:01.954Z,6.10
2023-04-19T08:28:29.071Z,5.47
2023-04-19T08:30:56.227Z,5.83
2023-04-19T08:33:23.338Z,5.83
2023-04-19T08:35:50.852Z,5.67
2023-04-19T08:38:18.060Z,5.37
2023-04-19T08:40:52.292Z,5.63
2023-04-19T08:43:20.122Z,5.43
2023-04-19T08:45:48.423Z,5.23
2023-04-19T08:48:16.229Z,5.60
2023-04-19T08:51:00.387Z,5.53
2023-04-19T08:53:31.471Z,5.57
2023-04-19T08:56:12.816Z,5.77
2023-04-19T09:01:22.509Z,5.33
2023-04-19T09:04:03.416Z,5.30
2023-04-19T09:06:38.131Z,5.17
2023-04-19T09:12:01.900Z,5.50
2023-04-19T09:14:29.630Z,5.80
2023-04-19T09:17:17.954Z,5.03
2023-04-19T09:19:50.230Z,7.37
2023-04-19T09:22:17.989Z,6.40
2023-04-19T09:27:32.343Z,5.20
2023-04-19T09:30:00.810Z,4.73
2023-04-19T09:32:28.433Z,5.07
2023-04-19T09:34:59.635Z,4.40
2023-04-19T09:39:57.511Z,4.87
2023-04-19T09:42:47.275Z,6.57
2023-04-19T09:45:29.328Z,4.47
2023-04-19T09:48:04.779Z,3.97
2023-04-19T09:50:33.492Z,4.70
2023-04-19T09:53:03.895Z,4.70
2023-04-19T09:55:41.338Z,4.20
2023-04-19T09:58:16.566Z,4.50
2023-04-19T10:00:50.033Z,4.67
2023-04-19T10:03:19.220Z,4.20
2023-04-19T10:05:46.624Z,4.83
2023-04-19T10:08:14.964Z,4.93
2023-04-19T10:10:45.428Z,4.87
2023-04-19T10:15:51.330Z,4.83
2023-04-19T10:18:23.014Z,4.53
2023-04-19T10:20:53.730Z,5.30
2023-04-19T10:23:21.314Z,4.47
2023-04-19T10:25:48.766Z,3.93
2023-04-19T10:28:17.057Z,4.20
2023-04-19T10:31:03.770Z,4.30
2023-04-19T10:33:37.859Z,4.93
2023-04-19T10:36:05.501Z,4.53
2023-04-19T10:38:40.097Z,4.93
2023-04-19T10:41:14.425Z,5.13
2023-04-19T10:43:57.665Z,5.38
2023-04-19T10:46:25.867Z,5.28
2023-04-19T10:48:54.946Z,5.85
2023-04-19T10:51:23.972Z,5.80
2023-04-19T10:53:52.507Z,5.65
2023-04-19T10:56:34.715Z,5.60
2023-04-19T10:59:01.928Z,5.18
2023-04-19T11:01:45.609Z,5.53
2023-04-19T11:04:13.653Z,5.55
2023-04-19T11:06:56.255Z,4.95
2023-04-19T11:09:28.171Z,4.90
2023-04-19T11:11:58.155Z,4.78
2023-04-19T11:14:25.344Z,4.30
2023-04-19T11:16:52.826Z,4.30
2023-04-19T11:19:20.598Z,4.40
2023-04-19T11:21:48.006Z,5.32
2023-04-19T11:24:18.579Z,6.75
2023-04-19T11:26:46.180Z,4.10
2023-04-19T11:29:13.845Z,4.40
2023-04-19T11:31:41.627Z,3.78
2023-04-19T11:34:08.770Z,4.00
2023-04-19T11:36:37.074Z,3.80
2023-04-19T11:39:07.405Z,3.80
2023-04-19T11:41:40.947Z,3.78
2023-04-19T11:44:20.086Z,3.60
2023-04-19T11:46:59.867Z,3.70
2023-04-19T11:49:30.825Z,3.60
2023-04-19T11:52:04.696Z,3.35
2023-04-19T11:54:32.623Z,3.35
2023-04-19T11:57:06.570Z,2.65
2023-04-19T11:59:35.059Z,2.70
2023-04-19T12:02:06.014Z,2.78
2023-04-19T12:04:33.413Z,2.35
2023-04-19T12:07:00.980Z,2.40
2023-04-19T12:09:28.139Z,2.30
2023-04-19T12:11:55.656Z,2.22
2023-04-19T12:14:23.735Z,2.80
2023-04-19T12:17:09.200Z,2.03
2023-04-19T12:19:37.322Z,2.00
2023-04-19T12:22:30.672Z,1.80
2023-04-19T12:24:57.952Z,2.03
2023-04-19T12:27:25.884Z,1.80
2023-04-19T12:29:53.074Z,1.80
2023-04-19T12:32:20.914Z,1.77
2023-04-19T12:34:48.116Z,1.92
2023-04-19T12:37:15.190Z,1.85
2023-04-19T12:39:42.336Z,1.75
2023-04-19T12:42:09.485Z,1.80
2023-04-19T12:44:36.595Z,2.15
2023-04-19T12:47:03.772Z,1.55
2023-04-19T12:49:30.856Z,1.58
2023-04-19T12:51:57.956Z,1.50
2023-04-19T12:54:25.134Z,1.65
2023-04-19T12:56:52.845Z,1.58
2023-04-19T12:59:20.034Z,1.60
2023-04-19T13:01:47.179Z,1.70
2023-04-19T13:04:14.519Z,1.20
2023-04-19T13:06:41.948Z,1.10
2023-04-19T13:11:39.292Z,1.15
2023-04-19T13:14:06.415Z,1.40
2023-04-19T13:16:33.992Z,1.27
2023-04-19T13:19:01.210Z,1.40
2023-04-19T13:21:28.308Z,1.30
2023-04-19T13:23:55.772Z,1.50
2023-04-19T13:26:23.861Z,1.30
2023-04-19T13:28:51.161Z,1.42
2023-04-19T13:31:18.311Z,1.35
2023-04-19T13:33:46.327Z,1.80
2023-04-19T13:36:13.377Z,1.50
2023-04-19T13:38:40.643Z,1.60
2023-04-19T13:41:07.750Z,1.30
2023-04-19T13:43:34.909Z,1.50
2023-04-19T13:46:01.980Z,1.65
2023-04-19T13:48:29.152Z,1.30
2023-04-19T13:50:56.832Z,1.63
2023-04-19T13:53:24.540Z,1.55
2023-04-19T13:55:52.409Z,1.50
2023-04-19T13:58:19.847Z,1.50
2023-04-19T14:00:48.200Z,1.70
2023-04-19T14:03:15.555Z,1.52
2023-04-19T14:05:42.877Z,1.73
2023-04-19T14:08:10.170Z,1.55
2023-04-19T14:10:38.030Z,1.60
2023-04-19T14:13:05.472Z,1.55
2023-04-19T14:15:32.704Z,1.35
2023-04-19T14:18:00.775Z,1.58
2023-04-19T14:20:27.991Z,1.60
2023-04-19T14:23:00.216Z,2.75
2023-04-19T14:25:27.563Z,2.05
2023-04-19T14:27:54.710Z,1.40
2023-04-19T14:30:22.043Z,2.00
2023-04-19T14:32:49.290Z,1.80
2023-04-19T14:35:16.479Z,1.50
2023-04-19T14:37:43.663Z,2.83
2023-04-19T14:40:11.181Z,1.73
2023-04-19T14:42:38.350Z,1.60
2023-04-19T14:45:06.013Z,1.65
2023-04-19T14:47:33.107Z,1.80
2023-04-19T14:50:00.742Z,2.00
2023-04-19T14:52:27.954Z,2.35
2023-04-19T14:54:55.117Z,3.20
2023-04-19T14:57:22.236Z,1.50
2023-04-19T14:59:49.347Z,1.70
2023-04-19T15:02:16.580Z,2.30
2023-04-19T15:04:43.908Z,2.15
2023-04-19T15:07:11.217Z,2.20
2023-04-19T15:09:38.441Z,2.40
2023-04-19T15:12:05.889Z,1.55
2023-04-19T15:14:32.989Z,1.90
2023-04-19T15:17:00.169Z,2.20
2023-04-19T15:19:28.204Z,2.47
2023-04-19T15:21:55.305Z,2.20
2023-04-19T15:24:22.424Z,2.20
2023-04-19T15:26:49.536Z,2.07
2023-04-19T15:29:16.792Z,2.20
2023-04-19T15:31:44.258Z,2.30
2023-04-19T15:34:11.408Z,2.30
2023-04-19T15:36:38.577Z,2.20
2023-04-19T15:39:05.700Z,2.23
2023-04-19T15:41:32.889Z,1.90
2023-04-19T15:43:59.978Z,2.30
2023-04-19T15:46:27.209Z,2.20
2023-04-19T15:48:54.313Z,2.23
2023-04-19T15:51:21.466Z,2.30
2023-04-19T15:53:48.580Z,2.23
2023-04-19T15:56:15.877Z,2.20
2023-04-19T15:58:42.988Z,2.30
2023-04-19T16:01:12.597Z,2.30
2023-04-19T16:03:40.267Z,2.00
2023-04-19T16:06:07.626Z,2.80
2023-04-19T16:08:34.796Z,2.47
2023-04-19T16:11:01.960Z,2.40
2023-04-19T16:13:31.283Z,2.30
2023-04-19T16:15:58.667Z,2.57
2023-04-19T16:18:25.819Z,2.27
2023-04-19T16:20:54.112Z,2.30
2023-04-19T16:23:21.488Z,2.20
2023-04-19T16:25:48.665Z,2.50
2023-04-19T16:28:15.974Z,2.10
2023-04-19T16:30:43.649Z,2.03
2023-04-19T16:33:11.407Z,2.50
2023-04-19T16:35:38.545Z,2.80
2023-04-19T16:38:06.962Z,2.07
2023-04-19T16:40:34.126Z,2.20
2023-04-19T16:43:01.560Z,2.10
2023-04-19T16:45:28.744Z,2.37
2023-04-19T16:47:55.973Z,2.30
2023-04-19T16:50:23.154Z,2.23
2023-04-19T16:52:50.386Z,3.27
2023-04-19T16:55:17.496Z,2.37
2023-04-19T16:57:44.609Z,1.90
2023-04-19T17:00:13.178Z,2.53
2023-04-19T17:02:40.519Z,5.67
2023-04-19T17:05:08.085Z,2.17
2023-04-19T17:07:35.299Z,2.20
2023-04-19T17:10:02.415Z,2.20
2023-04-19T17:12:29.532Z,2.33
2023-04-19T17:14:56.672Z,2.50
2023-04-19T17:17:24.549Z,2.90
2023-04-19T17:19:51.806Z,2.20
2023-04-19T17:22:19.050Z,2.70
2023-04-19T17:24:46.169Z,2.50
2023-04-19T17:27:13.256Z,2.37
2023-04-19T17:29:40.452Z,3.47
2023-04-19T17:32:08.867Z,4.80
2023-04-19T17:34:37.075Z,2.60
2023-04-19T17:37:04.525Z,2.63
2023-04-19T17:39:31.730Z,3.40
2023-04-19T17:41:58.806Z,2.50
2023-04-19T17:44:26.029Z,2.60
2023-04-19T17:46:53.261Z,3.70
2023-04-19T17:49:21.768Z,3.27
2023-04-19T17:51:48.964Z,5.17
2023-04-19T17:54:16.332Z,6.80
2023-04-19T17:56:43.490Z,5.97
2023-04-19T17:59:10.731Z,2.23
2023-04-19T18:01:38.092Z,2.57
2023-04-19T18:04:05.586Z,2.40
2023-04-19T18:06:33.057Z,2.77
2023-04-19T18:09:00.574Z,2.57
2023-04-19T18:11:28.672Z,2.50
2023-04-19T18:13:56.173Z,2.80
2023-04-19T18:16:23.558Z,2.60
2023-04-19T18:18:51.177Z,2.43
2023-04-19T18:21:18.554Z,2.63
2023-04-19T18:23:45.749Z,2.87
2023-04-19T18:26:12.870Z,2.83
2023-04-19T18:28:40.310Z,2.90
2023-04-19T18:31:08.579Z,3.00
2023-04-19T18:33:36.471Z,3.40
2023-04-19T18:36:03.733Z,3.43
2023-04-19T18:38:30.906Z,3.33
2023-04-19T18:40:58.499Z,3.30
2023-04-19T18:43:26.263Z,3.60
2023-04-19T18:45:54.675Z,3.33
2023-04-19T18:48:22.396Z,3.20
2023-04-19T18:50:49.532Z,3.80
2023-04-19T18:53:16.679Z,3.63
2023-04-19T18:55:43.786Z,3.50
2023-04-19T18:58:11.950Z,2.90
2023-04-19T19:00:39.097Z,3.60
2023-04-19T19:03:09.353Z,3.30
2023-04-19T19:05:52.031Z,3.20
2023-04-19T19:08:19.689Z,2.80
2023-04-19T19:11:14.041Z,3.40
2023-04-19T19:13:34.004Z,3.63
2023-04-19T19:16:01.165Z,3.50
2023-04-19T19:18:29.578Z,3.70
2023-04-19T19:21:03.260Z,3.60
2023-04-19T19:23:35.916Z,3.50
2023-04-19T19:26:05.021Z,3.50
2023-04-19T19:28:32.143Z,3.70
2023-04-19T19:30:59.246Z,3.80
2023-04-19T19:33:28.624Z,3.97
2023-04-19T19:35:56.042Z,3.63
2023-04-19T19:38:23.162Z,3.80
2023-04-19T19:41:07.953Z,4.00
2023-04-19T19:43:39.829Z,3.60
2023-04-19T19:46:06.959Z,3.70
2023-04-19T19:48:40.355Z,4.23
2023-04-19T19:51:41.606Z,4.37
2023-04-19T19:53:56.990Z,3.57
2023-04-19T19:56:24.586Z,4.20
2023-04-19T19:58:52.316Z,3.70
2023-04-19T20:01:21.939Z,3.40
2023-04-19T20:03:49.991Z,3.33
2023-04-19T20:07:03.434Z,3.90
2023-04-19T20:09:04.512Z,3.60
2023-04-19T20:11:31.772Z,3.40
2023-04-19T20:13:58.874Z,3.80
2023-04-19T20:16:26.522Z,4.33
2023-04-19T20:18:54.466Z,4.30
2023-04-19T20:21:21.608Z,4.30
2023-04-19T20:23:48.748Z,5.27
2023-04-19T20:26:15.852Z,4.60
2023-04-19T20:28:42.993Z,4.70
2023-04-19T20:31:10.516Z,5.33
2023-04-19T20:33:37.602Z,4.43
2023-04-19T20:36:04.724Z,4.40
2023-04-19T20:38:32.586Z,5.10
2023-04-19T20:40:59.696Z,4.90
2023-04-19T20:43:26.820Z,4.60
2023-04-19T20:45:53.955Z,5.03
2023-04-19T20:48:21.159Z,8.97
2023-04-19T20:50:48.309Z,9.03
2023-04-19T20:53:15.649Z,7.63
2023-04-19T20:55:43.616Z,5.83
2023-04-19T20:58:11.094Z,4.50
2023-04-19T21:00:38.207Z,4.77
2023-04-19T21:03:06.433Z,4.70
2023-04-19T21:05:35.069Z,4.10
2023-04-19T21:08:02.661Z,4.17
2023-04-19T21:10:30.215Z,3.70
2023-04-19T21:12:57.328Z,4.30
2023-04-19T21:15:24.581Z,4.53
2023-04-19T21:17:51.735Z,4.00
2023-04-19T21:20:18.929Z,4.03
2023-04-19T21:22:47.177Z,4.07
2023-04-19T21:25:14.353Z,3.60
2023-04-19T21:27:42.505Z,3.50
2023-04-19T21:30:10.471Z,3.47
2023-04-19T21:32:37.682Z,3.77
2023-04-19T21:35:05.102Z,3.63
2023-04-19T21:37:32.282Z,3.73
2023-04-19T21:39:59.447Z,3.90
2023-04-19T21:42:26.564Z,3.90
2023-04-19T21:44:53.638Z,3.77
2023-04-19T21:47:21.217Z,4.00
2023-04-19T21:49:48.402Z,4.00
2023-04-19T21:52:15.523Z,4.30
2023-04-19T21:54:42.637Z,4.03
2023-04-19T21:57:11.025Z,4.43
2023-04-19T21:59:38.366Z,4.70
2023-04-19T22:02:05.616Z,4.37
2023-04-19T22:04:32.856Z,4.70
2023-04-19T22:07:02.291Z,4.40
2023-04-19T22:09:30.168Z,4.57
2023-04-19T22:11:57.276Z,4.40
2023-04-19T22:14:24.373Z,5.00
2023-04-19T22:16:51.735Z,4.70
2023-04-19T22:19:19.110Z,5.60
2023-04-19T22:21:47.280Z,4.83
2023-04-19T22:24:14.461Z,5.20
2023-04-19T22:26:41.552Z,4.20
2023-04-19T22:29:08.686Z,4.07
2023-04-19T22:31:35.834Z,4.20
2023-04-19T22:34:03.012Z,4.17
2023-04-19T22:36:30.563Z,4.43
2023-04-19T22:38:57.682Z,4.10
2023-04-19T22:41:24.842Z,4.40
2023-04-19T22:43:51.992Z,3.90
2023-04-19T22:46:19.165Z,4.40
2023-04-19T22:48:48.196Z,4.23
2023-04-19T22:51:18.144Z,4.37
2023-04-19T22:53:45.408Z,3.77
2023-04-19T22:56:12.578Z,4.03
2023-04-19T22:58:39.696Z,3.90
2023-04-19T23:01:06.937Z,4.47
2023-04-19T23:03:34.376Z,4.13
2023-04-19T23:06:03.552Z,3.70
2023-04-19T23:08:33.493Z,3.57
2023-04-19T23:11:00.674Z,4.17
2023-04-19T23:13:27.822Z,4.10
2023-04-19T23:15:55.155Z,4.30
2023-04-19T23:18:22.352Z,4.40
2023-04-19T23:20:49.451Z,4.23
2023-04-19T23:23:16.564Z,4.80
2023-04-19T23:25:43.685Z,4.30
2023-04-19T23:28:12.590Z,4.30
2023-04-19T23:30:41.259Z,4.63
2023-04-19T23:33:08.353Z,4.37
2023-04-19T23:35:35.449Z,4.37
2023-04-19T23:38:02.525Z,4.80
2023-04-19T23:40:29.651Z,4.60
2023-04-19T23:42:56.804Z,4.90
2023-04-19T23:45:24.016Z,5.07
2023-04-19T23:47:51.206Z,5.20
2023-04-19T23:50:18.320Z,5.17
2023-04-19T23:52:45.447Z,5.40
2023-04-19T23:55:13.268Z,4.97
2023-04-19T23:57:40.436Z,5.10
